createdAt,value
2023-05-20T00:12:08.098Z,16.12
2023-05-20T00:26:59.800Z,16.00
2023-05-20T00:41:52.126Z,15.91
2023-05-20T00:56:44.494Z,15.91
2023-05-20T01:11:36.791Z,15.78
2023-05-20T01:26:28.915Z,15.76
2023-05-20T01:41:19.787Z,15.73
2023-05-20T01:56:11.099Z,15.67
2023-05-20T02:55:58.400Z,15.39
2023-05-20T03:10:50.013Z,15.26
2023-05-20T03:25:43.113Z,15.03
2023-05-20T03:40:33.990Z,14.79
2023-05-20T03:55:24.482Z,14.60
2023-05-20T04:10:16.603Z,14.54
2023-05-20T04:25:07.503Z,14.49
2023-05-20T04:39:59.641Z,14.49
2023-05-20T04:54:51.776Z,14.44
2023-05-20T05:09:43.293Z,14.49
2023-05-20T05:39:26.710Z,14.78
2023-05-20T05:54:22.726Z,14.90
2023-05-20T06:09:12.812Z,15.07
2023-05-20T06:24:05.785Z,15.27
2023-05-20T06:38:59.507Z,15.53
2023-05-20T06:53:51.640Z,16.04
2023-05-20T07:08:44.998Z,16.15
2023-05-20T07:23:38.362Z,16.52
2023-05-20T07:38:39.467Z,16.81
2023-05-20T07:53:32.495Z,17.32
2023-05-20T08:08:24.580Z,17.67
2023-05-20T08:23:19.143Z,17.92
2023-05-20T08:38:11.686Z,18.35
2023-05-20T08:53:05.346Z,18.92
2023-05-20T09:08:05.410Z,19.74
2023-05-20T09:23:05.899Z,19.88
2023-05-20T09:38:00.457Z,20.19
2023-05-20T09:52:53.605Z,20.44
2023-05-20T10:08:07.459Z,20.69
2023-05-20T10:23:08.183Z,20.95
2023-05-20T10:38:08.983Z,20.98
2023-05-20T10:53:05.149Z,21.36
2023-05-20T11:08:06.131Z,21.80
2023-05-20T11:23:00.655Z,22.08
2023-05-20T11:37:54.812Z,22.61
2023-05-20T11:52:55.139Z,22.48
2023-05-20T12:07:48.422Z,22.37
2023-05-20T12:22:43.884Z,23.14
2023-05-20T12:37:36.778Z,23.14
2023-05-20T12:52:29.359Z,23.06
2023-05-20T13:07:22.322Z,23.34
2023-05-20T13:22:16.078Z,23.47
2023-05-20T13:37:11.523Z,24.13
2023-05-20T13:52:03.643Z,24.34
2023-05-20T14:06:56.558Z,24.20
2023-05-20T14:21:47.213Z,23.97
2023-05-20T14:36:39.336Z,23.90
2023-05-20T14:51:31.047Z,24.40
2023-05-20T15:36:27.527Z,26.06
2023-05-20T16:06:17.301Z,25.12
2023-05-20T16:21:07.357Z,24.60
2023-05-20T16:35:59.671Z,24.46
2023-05-20T16:50:51.839Z,23.88
2023-05-20T17:05:44.375Z,23.59
2023-05-20T17:20:39.147Z,23.13
2023-05-20T17:35:31.794Z,22.91
2023-05-20T17:50:22.600Z,22.60
2023-05-20T18:05:18.234Z,22.30
2023-05-20T18:20:08.691Z,22.06
2023-05-20T19:34:34.021Z,20.67
2023-05-20T20:04:17.862Z,20.07
2023-05-20T20:19:08.993Z,19.91
2023-05-20T20:34:05.383Z,19.77
2023-05-20T20:48:54.463Z,19.55
2023-05-20T21:03:46.337Z,19.43
2023-05-20T21:18:38.324Z,19.31
2023-05-20T21:33:30.967Z,19.19
2023-05-20T21:48:23.089Z,18.96
2023-05-20T22:03:15.322Z,18.83
2023-05-20T22:18:07.984Z,18.73
2023-05-20T22:32:58.562Z,18.52
2023-05-20T22:47:49.808Z,18.34
2023-05-20T23:02:42.100Z,18.24
2023-05-20T23:17:35.137Z,18.17
2023-05-20T23:32:28.848Z,18.06
2023-05-20T23:47:20.936Z,17.96
